createdAt,value
2022-08-09T00:00:19.504Z,482.0000
2022-08-09T00:01:21.907Z,482.0000
2022-08-09T00:02:24.285Z,482.0000
2022-08-09T00:04:10.699Z,483.0000
2022-08-09T00:04:34.676Z,482.0000
2022-08-09T00:06:17.290Z,478.0000
2022-08-09T00:06:33.603Z,478.0000
2022-08-09T00:07:44.486Z,480.0000
2022-08-09T00:08:36.116Z,479.0000
2022-08-09T00:09:38.432Z,480.0000
2022-08-09T00:10:40.804Z,479.0000
2022-08-09T00:12:02.951Z,485.0000
2022-08-09T00:12:43.286Z,484.0000
2022-08-09T00:13:45.662Z,484.0000
2022-08-09T00:14:47.993Z,483.0000
2022-08-09T00:15:58.102Z,485.0000
2022-08-09T00:16:52.735Z,486.0000
2022-08-09T00:18:05.943Z,489.0000
2022-08-09T00:18:55.333Z,493.0000
2022-08-09T00:19:57.688Z,490.0000
2022-08-09T00:21:00.073Z,492.0000
2022-08-09T00:22:03.504Z,496.0000
2022-08-09T00:23:53.959Z,495.0000
2022-08-09T00:24:04.922Z,494.0000
2022-08-09T00:25:10.028Z,492.0000
2022-08-09T00:26:11.142Z,493.0000
2022-08-09T00:27:11.931Z,493.0000
2022-08-09T00:28:14.277Z,491.0000
2022-08-09T00:30:09.989Z,492.0000
2022-08-09T00:30:25.799Z,493.0000
2022-08-09T00:31:58.328Z,492.0000
2022-08-09T00:32:35.821Z,489.0000
2022-08-09T00:33:32.679Z,489.0000
2022-08-09T00:34:24.192Z,489.0000
2022-08-09T00:35:26.507Z,490.0000
2022-08-09T00:36:30.748Z,494.0000
2022-08-09T00:37:32.354Z,497.0000
2022-08-09T00:38:31.479Z,494.0000
2022-08-09T00:40:09.339Z,495.0000
2022-08-09T00:40:34.117Z,498.0000
2022-08-09T00:44:11.765Z,497.0000
2022-08-09T00:44:16.958Z,490.0000
2022-08-09T00:44:19.576Z,493.0000
2022-08-09T00:44:39.441Z,496.0000
2022-08-09T00:45:50.550Z,494.0000
2022-08-09T00:46:57.415Z,493.0000
2022-08-09T00:47:42.358Z,496.0000
2022-08-09T00:48:47.562Z,494.0000
2022-08-09T00:49:54.641Z,493.0000
2022-08-09T00:50:45.366Z,493.0000
2022-08-09T00:51:55.943Z,494.0000
2022-08-09T00:52:50.188Z,496.0000
2022-08-09T00:53:52.697Z,493.0000
2022-08-09T00:54:55.033Z,495.0000
2022-08-09T00:56:05.035Z,495.0000
2022-08-09T00:56:57.651Z,493.0000
2022-08-09T00:58:00.045Z,497.0000
2022-08-09T00:59:02.395Z,499.0000
2022-08-09T01:00:20.715Z,493.0000
2022-08-09T01:01:07.191Z,489.0000
2022-08-09T01:02:07.333Z,495.0000
2022-08-09T01:03:09.661Z,493.0000
2022-08-09T01:04:11.976Z,492.0000
2022-08-09T01:05:21.737Z,499.0000
2022-08-09T01:06:17.733Z,498.0000
2022-08-09T01:07:16.800Z,495.0000
2022-08-09T01:08:19.132Z,495.0000
2022-08-09T01:09:21.475Z,496.0000
2022-08-09T01:10:25.917Z,495.0000
2022-08-09T01:11:26.299Z,494.0000
2022-08-09T01:12:26.556Z,499.0000
2022-08-09T01:13:41.583Z,500.0000
2022-08-09T01:14:31.336Z,501.0000
2022-08-09T01:15:33.720Z,501.0000
2022-08-09T01:16:35.254Z,500.0000
2022-08-09T01:17:36.272Z,501.0000
2022-08-09T01:18:38.597Z,497.0000
2022-08-09T01:19:51.592Z,502.0000
2022-08-09T01:20:43.283Z,503.0000
2022-08-09T01:21:50.798Z,497.0000
2022-08-09T01:22:45.769Z,497.0000
2022-08-09T01:24:02.974Z,493.0000
2022-08-09T01:24:52.271Z,494.0000
2022-08-09T01:27:07.839Z,483.0000
2022-08-09T01:28:06.230Z,480.0000
2022-08-09T01:29:08.564Z,479.0000
2022-08-09T01:30:35.494Z,480.0000
2022-08-09T01:32:28.028Z,479.0000
2022-08-09T01:32:31.281Z,478.0000
2022-08-09T01:33:17.792Z,481.0000
2022-08-09T01:34:17.971Z,481.0000
2022-08-09T01:35:37.642Z,481.0000
2022-08-09T01:36:22.670Z,484.0000
2022-08-09T01:38:05.821Z,483.0000
2022-08-09T01:38:27.340Z,486.0000
2022-08-09T01:39:29.705Z,487.0000
2022-08-09T01:40:29.981Z,489.0000
2022-08-09T01:41:32.261Z,489.0000
2022-08-09T01:42:34.671Z,487.0000
2022-08-09T01:43:41.857Z,488.0000
2022-08-09T01:44:37.225Z,489.0000
2022-08-09T01:45:45.979Z,490.0000
2022-08-09T01:46:41.904Z,491.0000
2022-08-09T01:47:44.883Z,486.0000
2022-08-09T01:48:46.686Z,487.0000
2022-08-09T01:49:50.837Z,483.0000
2022-08-09T01:50:55.125Z,483.0000
2022-08-09T01:51:54.633Z,486.0000
2022-08-09T01:52:14.580Z,483.0000
2022-08-09T01:53:19.409Z,482.0000
2022-08-09T01:54:15.946Z,485.0000
2022-08-09T01:55:18.298Z,481.0000
2022-08-09T01:56:20.707Z,485.0000
2022-08-09T01:57:20.985Z,481.0000
2022-08-09T01:58:24.297Z,481.0000
2022-08-09T01:59:25.828Z,486.0000
2022-08-09T02:00:35.543Z,489.0000
2022-08-09T02:01:58.510Z,489.0000
2022-08-09T02:02:32.512Z,491.0000
2022-08-09T02:03:33.495Z,489.0000
2022-08-09T02:04:33.730Z,482.0000
2022-08-09T02:05:53.676Z,487.0000
2022-08-09T02:06:38.509Z,487.0000
2022-08-09T02:08:39.387Z,489.0000
2022-08-09T02:08:58.889Z,490.0000
2022-08-09T02:09:42.373Z,492.0000
2022-08-09T02:10:51.032Z,489.0000
2022-08-09T02:11:44.209Z,493.0000
2022-08-09T02:12:46.673Z,493.0000
2022-08-09T02:13:55.437Z,492.0000
2022-08-09T02:14:51.974Z,495.0000
2022-08-09T02:15:51.809Z,496.0000
2022-08-09T02:17:15.420Z,493.0000
2022-08-09T02:18:09.751Z,493.0000
2022-08-09T02:18:56.968Z,490.0000
2022-08-09T02:19:59.389Z,486.0000
2022-08-09T02:21:01.830Z,485.0000
2022-08-09T02:22:04.277Z,484.0000
2022-08-09T02:23:04.560Z,487.0000
2022-08-09T02:24:07.024Z,485.0000
2022-08-09T02:25:09.427Z,489.0000
2022-08-09T02:26:25.304Z,493.0000
2022-08-09T02:27:12.143Z,494.0000
2022-08-09T02:28:17.730Z,493.0000
2022-08-09T02:29:17.048Z,491.0000
2022-08-09T02:30:18.302Z,491.0000
2022-08-09T02:31:20.711Z,492.0000
2022-08-09T02:32:23.135Z,494.0000
2022-08-09T02:33:37.714Z,490.0000
2022-08-09T02:34:41.760Z,492.0000
2022-08-09T02:35:46.320Z,492.0000
2022-08-09T02:36:30.776Z,491.0000
2022-08-09T02:37:31.644Z,489.0000
2022-08-09T02:38:34.807Z,488.0000
2022-08-09T02:39:41.797Z,486.0000
2022-08-09T02:40:36.277Z,493.0000
2022-08-09T02:41:38.676Z,488.0000
2022-08-09T02:42:41.117Z,494.0000
2022-08-09T02:43:54.502Z,489.0000
2022-08-09T02:44:45.970Z,488.0000
2022-08-09T02:45:46.202Z,490.0000
2022-08-09T02:46:52.099Z,490.0000
2022-08-09T02:47:59.152Z,485.0000
2022-08-09T02:48:53.918Z,483.0000
2022-08-09T02:50:01.650Z,483.0000
2022-08-09T02:50:58.364Z,480.0000
2022-08-09T02:52:00.787Z,482.0000
2022-08-09T02:53:01.057Z,483.0000
2022-08-09T02:54:03.389Z,482.0000
2022-08-09T02:55:21.111Z,485.0000
2022-08-09T02:56:06.088Z,482.0000
2022-08-09T02:57:14.005Z,485.0000
2022-08-09T02:58:32.393Z,483.0000
2022-08-09T02:59:25.905Z,479.0000
2022-08-09T03:00:25.421Z,474.0000
2022-08-09T03:01:21.911Z,474.0000
2022-08-09T03:02:20.819Z,473.0000
2022-08-09T03:04:13.057Z,475.0000
2022-08-09T03:04:28.795Z,479.0000
2022-08-09T03:05:26.030Z,481.0000
2022-08-09T03:06:29.108Z,482.0000
2022-08-09T03:07:28.740Z,479.0000
2022-08-09T03:08:31.199Z,480.0000
2022-08-09T03:09:33.892Z,482.0000
2022-08-09T03:10:33.997Z,485.0000
2022-08-09T03:12:06.252Z,490.0000
2022-08-09T03:12:36.699Z,488.0000
2022-08-09T03:13:43.767Z,485.0000
2022-08-09T03:14:41.609Z,487.0000
2022-08-09T03:16:06.451Z,484.0000
2022-08-09T03:16:48.316Z,484.0000
2022-08-09T03:17:46.780Z,481.0000
2022-08-09T03:18:50.614Z,477.0000
2022-08-09T03:19:58.335Z,474.0000
2022-08-09T03:20:54.033Z,476.0000
2022-08-09T03:21:56.430Z,473.0000
2022-08-09T03:22:58.162Z,472.0000
2022-08-09T03:24:04.063Z,475.0000
2022-08-09T03:25:21.501Z,475.0000
2022-08-09T03:26:05.060Z,479.0000
2022-08-09T03:27:07.299Z,482.0000
2022-08-09T03:28:11.314Z,485.0000
2022-08-09T03:29:09.683Z,486.0000
2022-08-09T03:30:11.274Z,488.0000
2022-08-09T03:31:22.660Z,488.0000
2022-08-09T03:32:13.875Z,491.0000
2022-08-09T03:33:18.698Z,487.0000
2022-08-09T03:34:18.494Z,488.0000
2022-08-09T03:35:24.850Z,486.0000
2022-08-09T03:36:26.994Z,483.0000
2022-08-09T03:37:55.648Z,489.0000
2022-08-09T03:38:29.178Z,493.0000
2022-08-09T03:39:37.850Z,496.0000
2022-08-09T03:40:31.022Z,499.0000
2022-08-09T03:41:45.832Z,503.0000
2022-08-09T03:42:34.894Z,507.0000
2022-08-09T03:43:36.958Z,516.0000
2022-08-09T03:44:39.275Z,520.0000
2022-08-09T03:46:04.882Z,520.0000
2022-08-09T03:46:43.836Z,520.0000
2022-08-09T03:47:46.714Z,519.0000
2022-08-09T03:48:51.311Z,518.0000
2022-08-09T03:49:58.473Z,522.0000
2022-08-09T03:50:50.876Z,522.0000
2022-08-09T03:51:58.074Z,523.0000
2022-08-09T03:52:55.498Z,528.0000
2022-08-09T03:53:57.761Z,529.0000
2022-08-09T03:55:00.058Z,531.0000
2022-08-09T03:56:00.231Z,533.0000
2022-08-09T03:57:04.430Z,533.0000
2022-08-09T03:58:14.779Z,533.0000
2022-08-09T03:59:05.165Z,532.0000
2022-08-09T04:00:07.534Z,533.0000
2022-08-09T04:01:09.985Z,529.0000
2022-08-09T04:02:10.171Z,533.0000
2022-08-09T04:03:19.578Z,538.0000
2022-08-09T04:04:15.338Z,538.0000
2022-08-09T04:05:27.565Z,540.0000
2022-08-09T04:06:17.506Z,539.0000
2022-08-09T04:07:19.922Z,541.0000
2022-08-09T04:08:20.130Z,546.0000
2022-08-09T04:09:44.415Z,546.0000
2022-08-09T04:10:28.473Z,545.0000
2022-08-09T04:11:25.088Z,543.0000
2022-08-09T04:12:30.833Z,543.0000
2022-08-09T04:14:37.545Z,547.0000
2022-08-09T04:14:54.273Z,546.0000
2022-08-09T04:16:17.194Z,547.0000
2022-08-09T04:16:34.625Z,547.0000
2022-08-09T04:17:34.879Z,546.0000
2022-08-09T04:18:37.223Z,545.0000
2022-08-09T04:19:51.107Z,545.0000
2022-08-09T04:20:41.878Z,543.0000
2022-08-09T04:21:44.209Z,537.0000
2022-08-09T04:22:46.547Z,541.0000
2022-08-09T04:23:53.750Z,541.0000
2022-08-09T04:24:51.159Z,545.0000
2022-08-09T04:25:53.496Z,546.0000
2022-08-09T04:26:55.831Z,554.0000
2022-08-09T04:28:02.358Z,556.0000
2022-08-09T04:29:03.695Z,559.0000
2022-08-09T04:30:02.820Z,557.0000
2022-08-09T04:31:07.787Z,557.0000
2022-08-09T04:32:07.583Z,556.0000
2022-08-09T04:33:07.874Z,557.0000
2022-08-09T04:34:10.005Z,557.0000
2022-08-09T04:35:12.335Z,559.0000
2022-08-09T04:36:14.664Z,553.0000
2022-08-09T04:37:17.001Z,548.0000
2022-08-09T04:38:19.388Z,543.0000
2022-08-09T04:39:19.629Z,536.0000
2022-08-09T04:40:36.029Z,538.0000
2022-08-09T04:41:32.235Z,532.0000
2022-08-09T04:42:26.566Z,532.0000
2022-08-09T04:43:28.922Z,529.0000
2022-08-09T04:44:31.243Z,528.0000
2022-08-09T04:45:36.178Z,521.0000
2022-08-09T04:46:58.219Z,521.0000
2022-08-09T04:47:59.253Z,516.0000
2022-08-09T04:48:40.558Z,519.0000
2022-08-09T04:49:54.644Z,516.0000
2022-08-09T04:50:45.202Z,515.0000
2022-08-09T04:51:47.548Z,516.0000
2022-08-09T04:52:49.890Z,516.0000
2022-08-09T04:53:58.420Z,517.0000
2022-08-09T04:54:52.398Z,517.0000
2022-08-09T04:55:58.109Z,520.0000
2022-08-09T04:56:57.096Z,522.0000
2022-08-09T04:58:01.755Z,518.0000
2022-08-09T04:59:04.880Z,518.0000
2022-08-09T05:00:04.055Z,521.0000
2022-08-09T05:01:16.034Z,519.0000
2022-08-09T05:02:08.646Z,520.0000
2022-08-09T05:03:39.811Z,520.0000
2022-08-09T05:04:13.384Z,519.0000
2022-08-09T05:05:31.481Z,519.0000
2022-08-09T05:06:18.273Z,522.0000
2022-08-09T05:07:20.269Z,523.0000
2022-08-09T05:08:22.596Z,523.0000
2022-08-09T05:09:24.969Z,523.0000
2022-08-09T05:10:27.266Z,520.0000
2022-08-09T05:11:32.381Z,520.0000
2022-08-09T05:12:33.084Z,520.0000
2022-08-09T05:13:34.195Z,523.0000
2022-08-09T05:14:36.539Z,525.0000
2022-08-09T05:15:43.152Z,530.0000
2022-08-09T05:16:58.593Z,533.0000
2022-08-09T05:18:38.364Z,537.0000
2022-08-09T05:18:58.110Z,539.0000
2022-08-09T05:19:48.207Z,545.0000
2022-08-09T05:20:50.498Z,533.0000
2022-08-09T05:21:55.690Z,516.0000
2022-08-09T05:23:54.428Z,516.0000
2022-08-09T05:24:02.114Z,515.0000
2022-08-09T05:25:00.985Z,514.0000
2022-08-09T05:26:00.025Z,515.0000
2022-08-09T05:27:02.399Z,517.0000
2022-08-09T05:28:04.738Z,519.0000
2022-08-09T05:29:04.977Z,512.0000
2022-08-09T05:30:07.389Z,506.0000
2022-08-09T05:31:10.148Z,503.0000
2022-08-09T05:32:09.943Z,502.0000
2022-08-09T05:33:12.311Z,510.0000
2022-08-09T05:34:16.952Z,510.0000
2022-08-09T05:35:14.930Z,510.0000
2022-08-09T05:36:17.247Z,510.0000
2022-08-09T05:37:19.601Z,509.0000
2022-08-09T05:38:22.400Z,510.0000
2022-08-09T05:39:29.628Z,510.0000
2022-08-09T05:40:26.780Z,509.0000
2022-08-09T05:41:26.992Z,512.0000
2022-08-09T05:42:29.321Z,514.0000
2022-08-09T05:43:31.905Z,510.0000
2022-08-09T05:44:32.762Z,506.0000
2022-08-09T05:45:52.517Z,509.0000
2022-08-09T05:46:36.530Z,508.0000
2022-08-09T05:47:45.527Z,506.0000
2022-08-09T05:48:39.169Z,503.0000
2022-08-09T05:50:24.244Z,503.0000
2022-08-09T05:50:51.244Z,504.0000
2022-08-09T05:51:46.432Z,504.0000
2022-08-09T05:52:53.892Z,503.0000
2022-08-09T05:53:56.632Z,500.0000
2022-08-09T05:54:51.645Z,499.0000
2022-08-09T05:55:54.259Z,500.0000
2022-08-09T05:56:56.682Z,503.0000
2022-08-09T05:57:58.479Z,502.0000
2022-08-09T05:58:59.290Z,502.0000
2022-08-09T06:00:01.611Z,502.0000
2022-08-09T06:01:04.056Z,503.0000
2022-08-09T06:02:06.427Z,499.0000
2022-08-09T06:03:10.734Z,499.0000
2022-08-09T06:04:09.156Z,499.0000
2022-08-09T06:05:11.528Z,497.0000
2022-08-09T06:06:13.976Z,499.0000
2022-08-09T06:07:21.666Z,498.0000
2022-08-09T06:08:19.658Z,493.0000
2022-08-09T06:09:40.859Z,491.0000
2022-08-09T06:10:21.406Z,487.0000
2022-08-09T06:11:21.694Z,481.0000
2022-08-09T06:12:32.839Z,483.0000
2022-08-09T06:13:28.490Z,486.0000
2022-08-09T06:14:28.842Z,488.0000
2022-08-09T06:15:31.216Z,489.0000
2022-08-09T06:16:31.501Z,490.0000
2022-08-09T06:17:39.057Z,493.0000
2022-08-09T06:18:36.468Z,494.0000
2022-08-09T06:19:36.541Z,493.0000
2022-08-09T06:20:38.889Z,490.0000
2022-08-09T06:21:51.489Z,490.0000
2022-08-09T06:22:43.689Z,486.0000
2022-08-09T06:23:58.024Z,482.0000
2022-08-09T06:24:46.283Z,481.0000
2022-08-09T06:25:48.766Z,479.0000
2022-08-09T06:26:51.079Z,479.0000
2022-08-09T06:27:51.685Z,475.0000
2022-08-09T06:29:00.352Z,477.0000
2022-08-09T06:29:58.455Z,478.0000
2022-08-09T06:30:58.299Z,480.0000
2022-08-09T06:32:09.237Z,479.0000
2022-08-09T06:33:30.497Z,478.0000
2022-08-09T06:34:05.299Z,479.0000
2022-08-09T06:35:07.643Z,480.0000
2022-08-09T06:36:35.391Z,474.0000
2022-08-09T06:37:50.812Z,481.0000
2022-08-09T06:38:38.228Z,482.0000
2022-08-09T06:39:57.536Z,484.0000
2022-08-09T06:40:42.791Z,488.0000
2022-08-09T06:42:09.053Z,487.0000
2022-08-09T06:42:47.237Z,491.0000
2022-08-09T06:43:49.411Z,493.0000
2022-08-09T06:44:54.047Z,494.0000
2022-08-09T06:46:07.379Z,494.0000
2022-08-09T06:46:56.103Z,496.0000
2022-08-09T06:48:01.515Z,496.0000
2022-08-09T06:49:00.706Z,497.0000
2022-08-09T06:50:13.636Z,496.0000
2022-08-09T06:51:04.541Z,496.0000
2022-08-09T06:52:05.262Z,496.0000
2022-08-09T06:53:07.567Z,498.0000
2022-08-09T06:54:14.807Z,497.0000
2022-08-09T06:55:12.755Z,499.0000
2022-08-09T06:56:14.343Z,500.0000
2022-08-09T06:57:16.615Z,501.0000
2022-08-09T07:00:46.415Z,502.0000
2022-08-09T07:00:50.509Z,502.0000
2022-08-09T07:00:50.842Z,498.0000
2022-08-09T07:01:24.126Z,497.0000
2022-08-09T07:02:29.194Z,496.0000
2022-08-09T07:03:29.005Z,491.0000
2022-08-09T07:04:30.275Z,494.0000
2022-08-09T07:05:58.281Z,491.0000
2022-08-09T07:06:32.633Z,492.0000
2022-08-09T07:08:00.602Z,492.0000
2022-08-09T07:08:39.629Z,492.0000
2022-08-09T07:09:53.751Z,493.0000
2022-08-09T07:10:39.566Z,491.0000
2022-08-09T07:11:51.905Z,489.0000
2022-08-09T07:12:44.380Z,486.0000
2022-08-09T07:13:45.036Z,487.0000
2022-08-09T07:14:50.863Z,487.0000
2022-08-09T07:16:34.986Z,485.0000
2022-08-09T07:16:57.409Z,484.0000
2022-08-09T07:17:52.556Z,483.0000
2022-08-09T07:18:53.492Z,483.0000
2022-08-09T07:19:55.865Z,482.0000
2022-08-09T07:20:58.032Z,485.0000
2022-08-09T07:22:00.343Z,483.0000
2022-08-09T07:23:02.590Z,482.0000
2022-08-09T07:24:05.087Z,484.0000
2022-08-09T07:25:09.413Z,483.0000
2022-08-09T07:26:09.484Z,481.0000
2022-08-09T07:27:26.530Z,481.0000
2022-08-09T07:28:11.891Z,480.0000
2022-08-09T07:29:14.119Z,481.0000
2022-08-09T07:30:16.357Z,481.0000
2022-08-09T07:31:18.615Z,481.0000
2022-08-09T07:32:20.888Z,481.0000
2022-08-09T07:33:23.392Z,480.0000
2022-08-09T07:34:25.706Z,478.0000
2022-08-09T07:35:27.733Z,475.0000
2022-08-09T07:36:27.818Z,474.0000
2022-08-09T07:37:30.059Z,473.0000
2022-08-09T07:38:32.276Z,474.0000
2022-08-09T07:39:41.163Z,474.0000
2022-08-09T07:41:00.649Z,474.0000
2022-08-09T07:41:39.129Z,475.0000
2022-08-09T07:42:41.318Z,474.0000
2022-08-09T07:43:55.853Z,473.0000
2022-08-09T07:44:51.852Z,475.0000
2022-08-09T07:45:46.074Z,472.0000
2022-08-09T07:46:48.348Z,470.0000
2022-08-09T07:48:01.394Z,470.0000
2022-08-09T07:48:59.556Z,470.0000
2022-08-09T07:50:07.617Z,472.0000
2022-08-09T07:51:10.013Z,470.0000
2022-08-09T07:52:06.048Z,470.0000
2022-08-09T07:53:02.846Z,470.0000
2022-08-09T07:54:05.983Z,467.0000
2022-08-09T07:55:09.797Z,464.0000
2022-08-09T07:56:06.469Z,464.0000
2022-08-09T07:57:12.526Z,466.0000
2022-08-09T07:58:13.331Z,467.0000
2022-08-09T07:59:15.020Z,468.0000
2022-08-09T08:00:11.728Z,470.0000
2022-08-09T08:01:14.128Z,471.0000
2022-08-09T08:02:19.347Z,470.0000
2022-08-09T08:03:18.569Z,470.0000
2022-08-09T08:04:18.717Z,468.0000
2022-08-09T08:05:21.031Z,466.0000
2022-08-09T08:06:31.878Z,462.0000
2022-08-09T08:08:42.406Z,464.0000
2022-08-09T08:09:02.322Z,464.0000
2022-08-09T08:09:36.420Z,462.0000
2022-08-09T08:10:28.235Z,461.0000
2022-08-09T08:12:10.512Z,462.0000
2022-08-09T08:12:32.788Z,461.0000
2022-08-09T08:13:40.052Z,462.0000
2022-08-09T08:14:35.218Z,466.0000
2022-08-09T08:15:39.400Z,463.0000
2022-08-09T08:16:39.821Z,464.0000
2022-08-09T08:17:54.591Z,464.0000
2022-08-09T08:18:43.229Z,464.0000
2022-08-09T08:19:44.584Z,462.0000
2022-08-09T08:20:46.845Z,461.0000
2022-08-09T08:21:52.755Z,460.0000
2022-08-09T08:22:51.408Z,458.0000
2022-08-09T08:23:55.864Z,458.0000
2022-08-09T08:24:57.539Z,457.0000
2022-08-09T08:26:06.416Z,458.0000
2022-08-09T08:27:00.723Z,457.0000
2022-08-09T08:28:00.891Z,458.0000
2022-08-09T08:29:03.186Z,457.0000
2022-08-09T08:30:05.475Z,459.0000
2022-08-09T08:31:14.324Z,459.0000
2022-08-09T08:32:12.397Z,459.0000
2022-08-09T08:33:23.912Z,460.0000
2022-08-09T08:34:12.555Z,461.0000
2022-08-09T08:35:18.052Z,460.0000
2022-08-09T08:36:28.351Z,461.0000
2022-08-09T08:37:19.370Z,461.0000
2022-08-09T08:38:21.602Z,463.0000
2022-08-09T08:39:23.910Z,461.0000
2022-08-09T08:40:26.168Z,463.0000
2022-08-09T08:41:42.041Z,460.0000
2022-08-09T08:42:31.812Z,458.0000
2022-08-09T08:43:31.001Z,458.0000
2022-08-09T08:44:33.297Z,456.0000
2022-08-09T08:45:37.681Z,460.0000
2022-08-09T08:46:59.435Z,457.0000
2022-08-09T08:47:42.798Z,458.0000
2022-08-09T08:48:40.338Z,457.0000
2022-08-09T08:49:47.840Z,457.0000
2022-08-09T08:50:45.416Z,457.0000
2022-08-09T08:52:00.332Z,455.0000
2022-08-09T08:53:00.002Z,454.0000
2022-08-09T08:54:03.304Z,454.0000
2022-08-09T08:54:52.002Z,454.0000
2022-08-09T08:55:54.309Z,454.0000
2022-08-09T08:56:56.666Z,452.0000
2022-08-09T08:59:19.947Z,452.0000
2022-08-09T09:00:27.310Z,457.0000
2022-08-09T09:01:20.715Z,456.0000
2022-08-09T09:02:30.881Z,455.0000
2022-08-09T09:03:33.295Z,453.0000
2022-08-09T09:04:27.324Z,453.0000
2022-08-09T09:05:33.359Z,453.0000
2022-08-09T09:06:27.930Z,452.0000
2022-08-09T09:07:30.235Z,453.0000
2022-08-09T09:08:37.799Z,456.0000
2022-08-09T09:09:57.968Z,459.0000
2022-08-09T09:10:37.038Z,455.0000
2022-08-09T09:11:39.339Z,457.0000
2022-08-09T09:12:39.450Z,457.0000
2022-08-09T09:13:56.282Z,456.0000
2022-08-09T09:14:44.008Z,453.0000
2022-08-09T09:15:49.274Z,456.0000
2022-08-09T09:16:48.541Z,454.0000
2022-08-09T09:17:52.924Z,454.0000
2022-08-09T09:19:06.379Z,456.0000
2022-08-09T09:19:55.402Z,455.0000
2022-08-09T09:20:55.488Z,454.0000
2022-08-09T09:21:58.146Z,455.0000
2022-08-09T09:23:01.795Z,455.0000
2022-08-09T09:24:04.708Z,455.0000
2022-08-09T09:26:01.690Z,453.0000
2022-08-09T09:26:12.138Z,451.0000
2022-08-09T09:27:09.137Z,450.0000
2022-08-09T09:28:11.404Z,453.0000
2022-08-09T09:29:17.048Z,452.0000
2022-08-09T09:30:39.785Z,450.0000
2022-08-09T09:31:17.448Z,452.0000
2022-08-09T09:32:16.291Z,453.0000
2022-08-09T09:33:18.516Z,452.0000
2022-08-09T09:34:20.757Z,454.0000
2022-08-09T09:35:23.056Z,454.0000
2022-08-09T09:36:23.208Z,452.0000
2022-08-09T09:37:25.533Z,453.0000
2022-08-09T09:38:36.628Z,454.0000
2022-08-09T09:39:54.504Z,457.0000
2022-08-09T09:40:32.521Z,457.0000
2022-08-09T09:41:48.599Z,456.0000
2022-08-09T09:42:35.277Z,455.0000
2022-08-09T09:43:41.460Z,456.0000
2022-08-09T09:44:39.474Z,453.0000
2022-08-09T09:46:38.866Z,453.0000
2022-08-09T09:46:46.221Z,450.0000
2022-08-09T09:47:48.096Z,448.0000
2022-08-09T09:48:46.572Z,448.0000
2022-08-09T09:50:07.262Z,447.0000
2022-08-09T09:50:51.652Z,446.0000
2022-08-09T09:51:53.419Z,450.0000
2022-08-09T09:52:56.187Z,448.0000
2022-08-09T09:54:02.120Z,451.0000
2022-08-09T09:55:00.221Z,451.0000
2022-08-09T09:56:05.260Z,452.0000
2022-08-09T09:58:00.773Z,451.0000
2022-08-09T09:58:18.871Z,450.0000
2022-08-09T09:59:07.192Z,451.0000
2022-08-09T10:00:09.426Z,449.0000
2022-08-09T10:01:31.332Z,448.0000
2022-08-09T10:02:13.995Z,450.0000
2022-08-09T10:03:16.281Z,450.0000
2022-08-09T10:04:22.789Z,451.0000
2022-08-09T10:04:33.575Z,451.0000
2022-08-09T10:06:03.248Z,452.0000
2022-08-09T10:06:38.022Z,451.0000
2022-08-09T10:08:01.036Z,454.0000
2022-08-09T10:08:54.507Z,454.0000
2022-08-09T10:09:45.952Z,456.0000
2022-08-09T10:10:44.904Z,455.0000
2022-08-09T10:12:01.412Z,455.0000
2022-08-09T10:12:51.850Z,457.0000
2022-08-09T10:13:51.748Z,454.0000
2022-08-09T10:14:54.061Z,455.0000
2022-08-09T10:16:54.768Z,452.0000
2022-08-09T10:17:24.016Z,453.0000
2022-08-09T10:18:00.880Z,456.0000
2022-08-09T10:19:00.983Z,458.0000
2022-08-09T10:20:03.248Z,452.0000
2022-08-09T10:21:05.442Z,451.0000
2022-08-09T10:22:07.717Z,451.0000
2022-08-09T10:23:09.981Z,452.0000
2022-08-09T10:24:15.957Z,455.0000
2022-08-09T10:25:15.324Z,458.0000
2022-08-09T10:26:16.984Z,460.0000
2022-08-09T10:27:24.840Z,458.0000
2022-08-09T10:28:19.467Z,454.0000
2022-08-09T10:30:12.175Z,453.0000
2022-08-09T10:32:39.962Z,445.0000
2022-08-09T10:33:29.855Z,445.0000
2022-08-09T10:34:33.603Z,442.0000
2022-08-09T10:35:35.604Z,444.0000
2022-08-09T10:36:35.749Z,443.0000
2022-08-09T10:37:38.330Z,443.0000
2022-08-09T10:38:56.664Z,443.0000
2022-08-09T10:39:48.932Z,442.0000
2022-08-09T10:40:50.030Z,441.0000
2022-08-09T10:41:47.593Z,442.0000
2022-08-09T10:42:52.967Z,443.0000
2022-08-09T10:44:01.201Z,442.0000
2022-08-09T10:44:53.950Z,440.0000
2022-08-09T10:46:00.062Z,440.0000
2022-08-09T10:47:00.875Z,439.0000
2022-08-09T10:49:10.662Z,434.0000
2022-08-09T10:50:14.832Z,434.0000
2022-08-09T10:51:13.966Z,428.0000
2022-08-09T10:52:20.204Z,430.0000
2022-08-09T10:53:18.450Z,430.0000
2022-08-09T10:54:18.590Z,429.0000
2022-08-09T10:55:20.850Z,432.0000
2022-08-09T10:56:23.302Z,434.0000
2022-08-09T10:57:25.446Z,432.0000
2022-08-09T10:58:27.721Z,432.0000
2022-08-09T10:59:31.143Z,432.0000
2022-08-09T11:00:32.239Z,434.0000
2022-08-09T11:03:11.548Z,435.0000
2022-08-09T11:03:15.717Z,433.0000
2022-08-09T11:03:49.784Z,430.0000
2022-08-09T11:04:55.443Z,432.0000
2022-08-09T11:06:00.422Z,432.0000
2022-08-09T11:06:44.861Z,434.0000
2022-08-09T11:07:56.622Z,431.0000
2022-08-09T11:08:53.054Z,431.0000
2022-08-09T11:09:48.949Z,430.0000
2022-08-09T11:10:54.792Z,430.0000
2022-08-09T11:11:53.336Z,430.0000
2022-08-09T11:12:55.641Z,427.0000
2022-08-09T11:13:57.975Z,426.0000
2022-08-09T11:14:58.172Z,429.0000
2022-08-09T11:16:04.656Z,432.0000
2022-08-09T11:17:02.859Z,431.0000
2022-08-09T11:18:05.156Z,431.0000
2022-08-09T11:19:09.706Z,435.0000
2022-08-09T11:20:17.965Z,436.0000
2022-08-09T11:21:09.998Z,439.0000
2022-08-09T11:22:18.747Z,440.0000
2022-08-09T11:23:12.529Z,438.0000
2022-08-09T11:24:14.858Z,438.0000
2022-08-09T11:25:17.186Z,435.0000
2022-08-09T11:26:21.027Z,434.0000
2022-08-09T11:27:52.753Z,432.0000
2022-08-09T11:28:34.068Z,432.0000
2022-08-09T11:30:05.929Z,432.0000
2022-08-09T11:30:32.362Z,433.0000
2022-08-09T11:31:36.564Z,436.0000
2022-08-09T11:32:29.393Z,437.0000
2022-08-09T11:33:31.642Z,439.0000
2022-08-09T11:34:31.765Z,440.0000
2022-08-09T11:35:34.967Z,441.0000
2022-08-09T11:36:35.881Z,440.0000
2022-08-09T11:37:40.966Z,440.0000
2022-08-09T11:38:41.352Z,441.0000
2022-08-09T11:39:39.095Z,440.0000
2022-08-09T11:40:41.347Z,440.0000
2022-08-09T11:41:43.660Z,440.0000
2022-08-09T11:42:43.757Z,441.0000
2022-08-09T11:43:46.010Z,443.0000
2022-08-09T11:44:46.142Z,444.0000
2022-08-09T11:45:46.291Z,445.0000
2022-08-09T11:46:48.579Z,445.0000
2022-08-09T11:47:50.857Z,446.0000
2022-08-09T11:48:53.817Z,445.0000
2022-08-09T11:50:52.613Z,445.0000
2022-08-09T11:53:02.061Z,443.0000
2022-08-09T11:53:03.372Z,443.0000
2022-08-09T11:53:15.842Z,445.0000
2022-08-09T11:54:06.045Z,444.0000
2022-08-09T11:55:04.850Z,443.0000
2022-08-09T11:56:07.166Z,443.0000
2022-08-09T11:57:07.351Z,444.0000
2022-08-09T11:58:09.704Z,443.0000
2022-08-09T11:59:12.001Z,444.0000
2022-08-09T12:00:16.451Z,442.0000
2022-08-09T12:02:16.154Z,439.0000
2022-08-09T12:02:37.185Z,440.0000
2022-08-09T12:03:50.533Z,440.0000
2022-08-09T12:04:28.638Z,442.0000
2022-08-09T12:05:23.879Z,443.0000
2022-08-09T12:06:31.932Z,443.0000
2022-08-09T12:07:28.439Z,440.0000
2022-08-09T12:08:28.624Z,438.0000
2022-08-09T12:09:33.762Z,440.0000
2022-08-09T12:10:39.373Z,441.0000
2022-08-09T12:11:44.585Z,443.0000